Latest Weather Observations for Bankstown

IDN60801

Issued at 12:32 pm EST Saturday 23 May 2015 (issued every 30 minutes, with the page automatically refreshed every 10 minutes)

About weather observations | Map of weather stations | Latest weather observations for NSW | Other Formats
Station Details ID: 066137 Name: BANKSTOWN AIRPORT AWS Lat: -33.92 Lon: 150.99 Height: 6.5 m
Data from the previous 72 hours. | See also: Recent months at Bankstown
Date/Time
EST
Temp
°C
App
Temp
°C
Dew
Point
Rel
Hum
%
Delta-T
°C
Wind Press
QNH
hPa
Press
MSL
hPa
Rain
since 9 am
mm
Dir
 
Spd
km/h
Gust
km/h
Spd
kts
Gust
kts
23/12:30pm 18.0 13.5 6.2 46 5.8 S 19 24 10 13 1028.2 1028.2 0.0
23/12:00pm 17.9 13.4 7.0 49 5.4 S 20 30 11 16 1028.4 1028.4 0.0
23/11:30am 17.2 13.0 7.3 52 5.0 SSW 19 28 10 15 1028.9 1028.9 0.0
23/11:00am 16.2 11.5 6.1 51 4.9 SSW 20 28 11 15 1029.3 1029.3 0.0
23/10:30am 15.7 11.3 6.7 55 4.4 SSW 19 28 10 15 1029.5 1029.5 0.0
23/10:00am 14.5 9.9 5.6 55 4.2 SW 19 24 10 13 1029.7 1029.7 0.0
23/09:30am 13.5 8.7 5.7 59 3.7 SW 20 30 11 16 1029.5 1029.5 0.0
23/09:00am 12.9 9.5 6.0 63 3.2 SW 13 20 7 11 1029.5 1029.5 17.2
23/08:30am 11.6 6.9 5.0 64 3.0 SW 19 26 10 14 1029.4 1029.4 17.2
23/08:00am 11.4 7.0 4.8 64 3.0 SW 17 24 9 13 1029.0 1029.0 17.2
23/07:30am 11.5 6.7 4.9 64 3.0 SW 19 28 10 15 1028.7 1028.7 17.2
23/07:00am 11.3 7.0 5.4 67 2.7 SSW 17 26 9 14 1028.4 1028.4 17.2
23/06:30am 11.3 6.7 5.8 69 2.6 SSW 19 26 10 14 1027.9 1027.9 17.2
23/06:00am 10.9 6.3 6.3 73 2.1 SSW 20 28 11 15 1027.4 1027.4 17.2
23/05:30am 10.0 6.7 6.3 78 1.7 SSW 13 19 7 10 1027.1 1027.1 17.2
23/05:00am 9.9 7.5 6.8 81 1.4 SW 9 13 5 7 1026.8 1026.8 17.2
23/04:30am 10.1 7.3 7.0 81 1.5 SW 11 15 6 8 1026.7 1026.7 17.2
23/04:00am 10.6 8.2 7.1 79 1.7 SW 9 15 5 8 1026.6 1026.6 17.2
23/03:30am 11.1 8.6 8.1 82 1.5 WSW 11 15 6 8 1026.7 1026.7 17.2
23/03:00am 11.4 10.0 9.5 88 0.9 WSW 7 11 4 6 1026.9 1026.9 17.2
23/02:30am 11.3 9.5 9.4 88 1.0 WSW 9 11 5 6 1027.0 1027.0 17.2
23/02:00am 11.4 8.9 9.7 89 0.9 SW 13 19 7 10 1027.1 1027.1 17.2
23/01:46am 11.4 8.9 9.7 89 0.9 SW 13 19 7 10 1027.1 1027.1 17.0
23/01:30am 11.5 8.6 9.8 89 0.9 SW 15 22 8 12 1027.2 1027.2 17.0
23/01:23am 11.6 8.4 9.9 89 0.9 WSW 17 22 9 12 1027.2 1027.2 17.0
23/01:00am 11.5 8.6 9.8 89 0.9 WSW 15 20 8 11 1027.0 1027.0 17.0
23/12:57am 11.5 8.6 9.8 89 0.9 WSW 15 19 8 10 1027.1 1027.1 17.0
23/12:30am 11.6 9.1 9.7 88 1.0 SW 13 17 7 9 1027.0 1027.0 16.8
23/12:23am 11.6 9.5 9.7 88 1.0 SW 11 17 6 9 1026.9 1026.9 16.6
23/12:17am 11.6 9.1 9.7 88 1.0 SW 13 17 7 9 1026.8 1026.8 16.4
23/12:00am 11.5 8.2 9.4 87 1.0 SW 17 22 9 12 1026.8 1026.8 16.4
 
Date/Time
EST
Temp
°C
App
Temp
°C
Dew
Point
Rel
Hum
%
Delta-T
°C
Wind Press
QNH
hPa
Press
MSL
hPa
Rain
since 9 am
mm
Dir
 
Spd
km/h
Gust
km/h
Spd
kts
Gust
kts
22/11:30pm 11.5 8.9 9.4 87 1.1 SW 13 17 7 9 1026.8 1026.8 15.8
22/11:12pm 11.5 8.9 9.2 86 1.2 SW 13 17 7 9 1026.6 1026.6 15.8
22/11:00pm 11.7 9.5 9.4 86 1.2 SW 11 17 6 9 1026.8 1026.8 15.8
22/10:30pm 11.6 9.9 9.7 88 1.0 W 9 13 5 7 1026.5 1026.5 15.6
22/10:20pm 11.6 10.4 9.7 88 1.0 WSW 6 7 3 4 1026.5 1026.5 15.6
22/10:02pm 11.7 10.4 9.8 88 1.0 WSW 7 9 4 5 1026.5 1026.5 15.6
22/10:00pm 11.7 10.4 9.8 88 1.0 WSW 7 9 4 5 1026.5 1026.5 15.6
22/09:37pm 11.7 10.0 9.8 88 1.0 WSW 9 13 5 7 1026.4 1026.4 15.2
22/09:30pm 11.7 10.0 9.8 88 1.0 SW 9 13 5 7 1026.3 1026.3 15.2
22/09:25pm 11.7 9.6 9.8 88 1.0 SW 11 13 6 7 1026.4 1026.4 15.2
22/09:15pm 11.8 10.1 9.9 88 1.0 SW 9 15 5 8 1026.3 1026.3 15.0
22/09:00pm 11.7 10.0 9.8 88 1.0 SSW 9 15 5 8 1026.3 1026.3 14.6
22/08:52pm 11.9 9.1 10.0 88 1.0 SW 15 20 8 11 1026.4 1026.4 14.4
22/08:30pm 11.8 8.6 9.9 88 1.0 WSW 17 24 9 13 1026.0 1026.0 13.6
22/08:00pm 11.9 8.7 9.8 87 1.1 SW 17 20 9 11 1025.9 1025.9 13.2
22/07:30pm 12.0 9.9 9.9 87 1.1 SW 11 15 6 8 1025.7 1025.7 13.0
22/07:22pm 12.1 9.6 9.8 86 1.2 SSW 13 17 7 9 1025.5 1025.5 13.0
22/07:00pm 12.1 9.6 9.8 86 1.2 S 13 19 7 10 1025.3 1025.3 11.8
22/06:49pm 12.1 9.6 9.8 86 1.2 SSW 13 17 7 9 1025.1 1025.1 11.0
22/06:30pm 11.8 9.6 9.4 85 1.2 SSW 11 17 6 9 1024.5 1024.5 10.4
22/06:21pm 12.0 8.7 9.6 85 1.2 SSW 17 24 9 13 1024.6 1024.6 10.4
22/06:00pm 12.3 8.6 10.0 86 1.2 SSW 20 30 11 16 1024.5 1024.5 10.4
22/05:55pm 12.3 9.1 10.0 86 1.2 SSW 17 30 9 16 1024.4 1024.4 10.4
22/05:35pm 12.4 9.2 10.1 86 1.2 SSW 17 24 9 13 1024.0 1024.0 10.0
22/05:30pm 12.3 9.1 9.9 85 1.2 SSW 17 24 9 13 1023.9 1023.9 10.0
22/05:21pm 12.5 8.9 10.0 85 1.3 SSW 19 28 10 15 1023.8 1023.8 10.0
22/05:00pm 12.8 10.0 10.0 83 1.4 SW 15 20 8 11 1023.3 1023.3 9.2
22/04:30pm 13.0 9.4 9.8 81 1.6 SSW 19 30 10 16 1023.1 1023.1 9.2
22/04:00pm 13.9 8.6 9.7 76 2.1 SSW 28 35 15 19 1022.4 1022.4 8.8
22/03:30pm 15.0 9.4 8.7 66 3.2 SSW 28 43 15 23 1021.8 1021.8 8.8
22/03:00pm 15.8 7.9 7.8 59 4.0 S 39 59 21 32 1021.4 1021.4 8.8
22/02:32pm 16.2 10.2 8.7 61 3.8 S 30 54 16 29 1020.7 1020.7 8.8
22/02:30pm 16.0 10.4 8.7 62 3.7 S 28 39 15 21 1020.7 1020.7 8.8
22/02:00pm 16.2 8.9 8.7 61 3.8 S 37 56 20 30 1020.5 1020.5 8.8
22/01:47pm 16.7 10.1 10.1 65 3.5 S 35 54 19 29 1020.4 1020.4 8.8
22/01:30pm 16.2 9.1 9.6 65 3.4 S 37 50 20 27 1020.2 1020.2 8.8
22/01:00pm 15.5 7.7 9.6 68 3.0 S 41 61 22 33 1020.2 1020.2 8.8
22/12:44pm 15.6 9.4 9.9 69 3.0 S 33 52 18 28 1019.8 1019.8 8.8
22/12:30pm 15.2 9.3 10.6 74 2.4 S 32 43 17 23 1019.6 1019.6 8.8
22/12:08pm 14.8 8.3 10.4 75 2.3 SSW 35 54 19 29 1019.5 1019.5 8.8
22/12:00pm 14.7 8.7 10.9 78 2.0 SSW 33 43 18 23 1019.4 1019.4 8.8
22/11:30am 15.8 9.8 10.8 72 2.7 S 33 52 18 28 1019.0 1019.0 8.8
22/11:28am 15.8 10.1 11.2 74 2.5 S 32 52 17 28 1019.0 1019.0 8.8
22/11:19am 15.4 9.6 11.6 78 2.0 SSE 33 46 18 25 1019.1 1019.1 8.8
22/11:00am 15.2 9.7 12.0 81 1.7 SSE 32 48 17 26 1019.2 1019.2 8.4
22/10:54am 15.4 11.0 12.9 85 1.4 S 28 46 15 25 1019.0 1019.0 8.0
22/10:52am 15.2 10.7 12.7 85 1.4 S 28 39 15 21 1019.0 1019.0 8.0
22/10:39am 14.1 12.0 12.3 89 1.0 SSW 15 20 8 11 1019.0 1019.0 8.0
22/10:37am 14.1 12.0 12.3 89 1.0 SSW 15 20 8 11 1019.0 1019.0 7.6
22/10:30am 14.2 12.1 12.4 89 1.0 SSW 15 22 8 12 1018.8 1018.8 7.2
22/10:18am 13.9 12.0 11.9 88 1.1 SW 13 19 7 10 1018.8 1018.8 6.4
22/10:05am 14.0 11.5 12.2 89 1.0 S 17 24 9 13 1018.8 1018.8 4.2
22/10:00am 13.9 11.3 12.1 89 1.0 S 17 30 9 16 1018.7 1018.7 3.8
22/09:52am 13.7 11.4 11.9 89 1.0 SW 15 22 8 12 1018.6 1018.6 3.2
22/09:47am 13.7 11.1 11.9 89 1.0 WSW 17 22 9 12 1018.5 1018.5 3.0
22/09:30am 13.7 11.4 11.9 89 1.0 WSW 15 20 8 11 1018.2 1018.2 1.0
22/09:00am 13.6 11.7 11.8 89 1.0 SSW 13 17 7 9 1018.0 1018.0 6.2
22/08:30am 13.0 10.5 11.1 88 1.0 SW 15 20 8 11 1017.6 1017.6 5.2
22/08:03am 12.7 10.1 10.6 87 1.1 SW 15 20 8 11 1017.3 1017.3 4.2
22/08:00am 12.6 9.9 10.3 86 1.2 SW 15 20 8 11 1017.3 1017.3 4.0
22/07:44am 12.7 9.2 10.1 84 1.3 SW 19 30 10 16 1017.3 1017.3 3.4
22/07:30am 12.9 9.7 10.1 83 1.4 SW 17 22 9 12 1017.0 1017.0 2.6
22/07:00am 12.9 10.9 10.1 83 1.4 SW 11 15 6 8 1016.7 1016.7 1.8
22/06:30am 13.1 11.4 9.7 80 1.7 SSW 9 15 5 8 1016.5 1016.5 0.6
22/06:00am 13.8 11.1 8.8 72 2.5 SSW 13 19 7 10 1016.3 1016.3 0.0
22/05:30am 13.9 10.4 8.7 71 2.6 SW 17 24 9 13 1015.9 1015.9 0.0
22/05:00am 13.9 10.3 8.5 70 2.7 SW 17 26 9 14 1015.7 1015.7 0.0
22/04:30am 13.7 11.1 7.9 68 2.9 WSW 11 17 6 9 1015.9 1015.9 0.0
22/04:00am 14.0 11.1 8.0 67 3.0 SW 13 19 7 10 1016.0 1016.0 0.0
22/03:30am 14.0 11.1 8.0 67 3.0 WSW 13 20 7 11 1016.1 1016.1 0.0
22/03:00am 13.2 10.6 7.6 69 2.7 WSW 11 17 6 9 1016.2 1016.2 0.0
22/02:30am 13.4 11.2 8.0 70 2.7 WSW 9 13 5 7 1016.6 1016.6 0.0
22/02:00am 12.3 10.0 7.4 72 2.4 WSW 9 11 5 6 1016.7 1016.7 0.0
22/01:30am 12.0 9.8 7.7 75 2.1 WSW 9 13 5 7 1016.7 1016.7 0.0
22/01:00am 11.7 10.1 8.0 78 1.8 W 6 9 3 5 1017.0 1017.0 0.0
22/12:30am 11.9 10.4 8.4 79 1.7 WSW 6 7 3 4 1017.3 1017.3 0.0
22/12:00am 12.3 10.6 8.4 77 1.9 WSW 7 9 4 5 1017.4 1017.4 0.0
 
Date/Time
EST
Temp
°C
App
Temp
°C
Dew
Point
Rel
Hum
%
Delta-T
°C
Wind Press
QNH
hPa
Press
MSL
hPa
Rain
since 9 am
mm
Dir
 
Spd
km/h
Gust
km/h
Spd
kts
Gust
kts
21/11:30pm 12.7 11.3 8.8 77 2.0 WSW 6 9 3 5 1017.4 1017.4 0.0
21/11:00pm 12.7 11.1 8.8 77 1.9 WSW 7 9 4 5 1017.3 1017.3 0.0
21/10:30pm 13.3 11.1 9.4 77 2.0 SW 11 17 6 9 1017.8 1017.8 0.0
21/10:00pm 13.5 11.7 9.4 76 2.1 SW 9 11 5 6 1017.9 1017.9 0.0
21/09:30pm 13.9 12.2 9.7 76 2.2 WSW 9 15 5 8 1017.9 1017.9 0.0
21/09:00pm 14.6 12.6 10.0 74 2.4 SSW 11 15 6 8 1017.9 1017.9 0.0
21/08:30pm 15.1 13.6 10.5 74 2.4 SW 9 13 5 7 1017.9 1017.9 0.0
21/08:00pm 15.1 13.7 10.9 76 2.2 SW 9 15 5 8 1017.9 1017.9 0.0
21/07:30pm 15.3 13.2 11.1 76 2.2 S 13 17 7 9 1018.0 1018.0 0.0
21/07:00pm 15.0 13.8 10.2 73 2.5 SSW 7 9 4 5 1018.1 1018.1 0.0
21/06:30pm 16.0 13.0 10.7 71 2.8 SSE 17 22 9 12 1017.8 1017.8 0.0
21/06:00pm 16.5 14.2 10.4 67 3.2 SSE 13 19 7 10 1017.5 1017.5 0.0
21/05:30pm 16.9 16.0 10.7 67 3.3 SW 6 9 3 5 1017.4 1017.4 0.0
21/05:00pm 16.9 16.1 11.0 68 3.2 W 6 7 3 4 1017.4 1017.4 0.0
21/04:30pm 18.2 15.7 9.8 58 4.4 SSE 13 17 7 9 1017.2 1017.2 0.0
21/04:00pm 19.0 15.7 9.5 54 5.0 SE 17 24 9 13 1017.1 1017.1 0.0
21/03:30pm 19.3 15.8 8.6 50 5.6 SE 17 22 9 12 1017.0 1017.0 0.0
21/03:00pm 19.2 15.4 7.6 47 5.9 SE 17 22 9 12 1016.9 1016.9 0.0
21/02:30pm 19.8 15.9 8.8 49 5.8 SSE 19 24 10 13 1016.9 1016.9 0.0
21/02:00pm 19.8 15.8 8.2 47 6.0 SSE 19 24 10 13 1016.8 1016.8 0.0
21/01:30pm 19.4 16.0 9.3 52 5.3 SE 17 22 9 12 1016.9 1016.9 0.0
21/01:00pm 20.8 18.4 7.1 41 7.0 W 9 15 5 8 1017.1 1017.1 0.0
21/12:30pm 20.1 17.3 7.1 43 6.6 SSE 11 15 6 8 1017.4 1017.4 0.0
21/12:00pm 19.8 17.8 7.2 44 6.4 S 7 15 4 8 1018.0 1018.0 0.0
21/11:30am 19.7 17.3 7.1 44 6.4 S 9 13 5 7 1018.5 1018.5 0.0
21/11:00am 19.1 15.5 6.6 44 6.2 SW 15 20 8 11 1019.0 1019.0 0.0
21/10:30am 18.5 15.3 6.7 46 5.9 WSW 13 19 7 10 1019.1 1019.1 0.0
21/10:00am 18.0 14.0 6.8 48 5.6 SW 17 20 9 11 1019.1 1019.1 0.0
21/09:30am 17.6 14.4 8.5 55 4.7 W 15 20 8 11 1019.0 1019.0 0.0
21/09:00am 16.8 15.1 9.7 63 3.7 WSW 9 13 5 7 1018.8 1018.8 0.2
21/08:30am 15.7 14.1 10.2 70 2.9 WNW 9 11 5 6 1018.6 1018.6 0.2
21/08:00am 14.6 13.8 11.7 83 1.6 NW 7 9 4 5 1018.3 1018.3 0.2
21/07:30am 12.6 11.5 10.5 87 1.1 NW 7 9 4 5 1018.2 1018.2 0.2
21/07:00am 11.7 9.9 9.4 86 1.2 NNW 9 13 5 7 1018.1 1018.1 0.2
21/06:30am 11.9 11.4 9.3 84 1.3 SE 2 9 1 5 1017.8 1017.8 0.2
21/06:00am 13.1 13.3 10.5 84 1.3 CALM 0 4 0 2 1017.7 1017.7 0.2
21/05:30am 13.4 11.2 10.8 84 1.4 NNW 13 17 7 9 1017.4 1017.4 0.2
21/05:00am 13.6 12.5 10.6 82 1.6 NW 7 9 4 5 1016.6 1016.6 0.2
21/04:30am 13.9 12.6 10.1 78 2.0 WNW 7 7 4 4 1016.4 1016.4 0.2
21/04:00am 14.4 13.5 10.6 78 2.0 NW 6 7 3 4 1016.4 1016.4 0.2
21/03:30am 14.8 13.8 10.4 75 2.3 NNW 6 7 3 4 1016.4 1016.4 0.2
21/03:00am 15.7 14.7 10.9 73 2.6 NW 7 13 4 7 1016.7 1016.7 0.2
21/02:30am 16.1 14.8 11.3 73 2.6 NW 9 13 5 7 1016.6 1016.6 0.2
21/02:00am 15.8 15.1 12.0 78 2.1 W 7 9 4 5 1016.5 1016.5 0.2
21/01:30am 15.6 14.1 11.8 78 2.1 NNW 11 15 6 8 1016.8 1016.8 0.2
21/01:00am 15.5 15.0 11.9 79 1.9 WNW 6 7 3 4 1016.6 1016.6 0.2
21/12:30am 15.6 14.8 11.8 78 2.1 WNW 7 9 4 5 1016.6 1016.6 0.2
21/12:00am 15.1 14.4 12.1 82 1.6 SSW 7 9 4 5 1017.0 1017.0 0.2
 
Date/Time
EST
Temp
°C
App
Temp
°C
Dew
Point
Rel
Hum
%
Delta-T
°C
Wind Press
QNH
hPa
Press
MSL
hPa
Rain
since 9 am
mm
Dir
 
Spd
km/h
Gust
km/h
Spd
kts
Gust
kts
20/11:30pm 15.9 16.8 12.8 82 1.7 CALM 0 0 0 0 1016.5 1016.5 0.2
20/11:00pm 15.8 15.6 13.1 84 1.5 NNW 6 15 3 8 1016.8 1016.8 0.2
20/10:30pm 16.3 17.4 13.6 84 1.5 CALM 0 0 0 0 1016.2 1016.2 0.2
20/10:00pm 15.4 15.2 12.9 85 1.4 SSW 6 7 3 4 1016.5 1016.5 0.2
20/09:30pm 16.5 17.8 14.0 85 1.4 CALM 0 0 0 0 1016.2 1016.2 0.2
20/09:00pm 16.1 16.3 13.0 82 1.7 SW 4 11 2 6 1016.2 1016.2 0.2
20/08:30pm 17.4 18.1 13.5 78 2.2 SW 2 6 1 3 1015.8 1015.8 0.2
20/08:00pm 18.1 19.4 14.0 77 2.3 CALM 0 0 0 0 1015.6 1015.6 0.2
20/07:30pm 18.5 19.9 14.4 77 2.4 CALM 0 0 0 0 1015.4 1015.4 0.2
20/07:00pm 18.2 18.2 13.7 75 2.6 S 6 9 3 5 1015.1 1015.1 0.2
20/06:30pm 19.7 20.4 13.4 67 3.6 NNE 2 6 1 3 1014.6 1014.6 0.2
20/06:00pm 20.5 20.0 13.9 66 3.8 ESE 9 15 5 8 1014.0 1014.0 0.2
20/05:30pm 19.7 19.4 13.2 66 3.7 S 7 9 4 5 1013.9 1013.9 0.2
20/05:00pm 20.8 21.6 12.5 59 4.7 CALM 0 2 0 1 1013.6 1013.6 0.2
20/04:30pm 22.0 21.5 12.0 53 5.6 N 6 7 3 4 1013.6 1013.6 0.2
20/04:00pm 22.8 22.4 11.2 48 6.5 W 4 6 2 3 1013.5 1013.5 0.2
20/03:30pm 23.0 21.5 10.4 45 6.9 NW 9 13 5 7 1013.3 1013.3 0.2
20/03:00pm 23.4 21.7 11.1 46 6.9 NW 11 13 6 7 1013.2 1013.2 0.2
20/02:30pm 23.0 20.9 11.1 47 6.6 N 13 19 7 10 1013.2 1013.2 0.2
20/02:00pm 23.4 21.2 10.8 45 7.0 NNW 13 17 7 9 1013.4 1013.4 0.2
20/01:30pm 23.7 22.0 11.1 45 7.0 NW 11 17 6 9 1013.3 1013.3 0.2
20/01:00pm 23.6 22.7 11.3 46 6.9 NNW 7 9 4 5 1013.5 1013.5 0.2

Other Formats:

Comma delimited format used in spreadsheet applications
http://www.bom.gov.au/fwo/IDN60801/IDN60801.94765.axf

JavaScript Object Notation format (JSON) in row-major order
http://www.bom.gov.au/fwo/IDN60801/IDN60801.94765.json